createdAt,value
2023-02-13T00:01:26.225Z,89.18
2023-02-13T00:03:54.652Z,89.15
2023-02-13T00:06:23.485Z,89.28
2023-02-13T00:08:51.651Z,89.71
2023-02-13T00:11:20.560Z,89.63
2023-02-13T00:13:49.138Z,89.69
2023-02-13T00:16:18.820Z,89.57
2023-02-13T00:18:46.963Z,89.36
2023-02-13T00:21:15.259Z,89.83
2023-02-13T00:23:43.426Z,90.30
2023-02-13T00:26:15.471Z,90.75
2023-02-13T00:28:43.755Z,91.33
2023-02-13T00:31:15.316Z,91.37
2023-02-13T00:33:45.215Z,91.37
2023-02-13T00:36:16.542Z,91.22
2023-02-13T00:38:45.716Z,91.44
2023-02-13T00:41:16.573Z,91.65
2023-02-13T00:43:45.095Z,91.85
2023-02-13T00:46:13.363Z,91.86
2023-02-13T00:48:41.939Z,91.94
2023-02-13T00:51:12.519Z,92.06
2023-02-13T00:53:40.939Z,91.75
2023-02-13T00:56:09.724Z,91.85
2023-02-13T00:58:38.314Z,92.00
2023-02-13T01:01:06.905Z,92.02
2023-02-13T01:03:35.128Z,92.05
2023-02-13T01:06:03.361Z,91.53
2023-02-13T01:08:32.862Z,91.32
2023-02-13T01:11:01.173Z,91.66
2023-02-13T01:13:29.315Z,91.78
2023-02-13T01:15:57.501Z,92.17
2023-02-13T01:18:25.879Z,92.01
2023-02-13T01:21:00.005Z,92.15
2023-02-13T01:23:33.558Z,92.10
2023-02-13T01:26:01.990Z,92.01
2023-02-13T01:28:30.190Z,92.03
2023-02-13T01:31:00.058Z,91.82
2023-02-13T01:33:30.375Z,91.55
2023-02-13T01:36:00.142Z,90.94
2023-02-13T01:38:28.227Z,90.25
2023-02-13T01:40:58.051Z,89.30
2023-02-13T01:43:43.457Z,89.58
2023-02-13T01:46:13.124Z,89.64
2023-02-13T01:48:41.570Z,89.67
2023-02-13T01:51:17.031Z,89.65
2023-02-13T01:53:51.260Z,89.22
2023-02-13T01:56:27.570Z,89.15
2023-02-13T01:59:01.928Z,89.15
2023-02-13T02:01:32.686Z,89.20
2023-02-13T02:04:08.797Z,89.40
2023-02-13T02:06:42.561Z,89.73
2023-02-13T02:09:16.854Z,89.69
2023-02-13T02:11:54.685Z,89.99
2023-02-13T02:14:23.168Z,89.42
2023-02-13T02:16:51.374Z,89.11
2023-02-13T02:19:34.194Z,89.35
2023-02-13T02:22:55.838Z,88.07
2023-02-13T02:26:08.657Z,88.46
2023-02-13T02:29:18.872Z,87.88
2023-02-13T02:32:18.116Z,87.57
2023-02-13T02:35:06.108Z,87.79
2023-02-13T02:38:00.533Z,87.46
2023-02-13T02:40:43.961Z,87.66
2023-02-13T02:43:29.253Z,87.72
2023-02-13T02:46:11.274Z,88.03
2023-02-13T02:49:09.713Z,88.07
2023-02-13T02:51:49.545Z,88.36
2023-02-13T02:54:44.717Z,87.79
2023-02-13T02:57:19.425Z,87.95
2023-02-13T03:00:07.936Z,87.65
2023-02-13T03:02:53.985Z,87.50
2023-02-13T03:05:48.302Z,87.11
2023-02-13T03:08:37.662Z,87.08
2023-02-13T03:11:24.689Z,85.62
2023-02-13T03:13:54.413Z,86.39
2023-02-13T03:16:44.242Z,86.84
2023-02-13T03:19:39.094Z,86.67
2023-02-13T03:22:24.370Z,87.13
2023-02-13T03:25:12.651Z,87.65
2023-02-13T03:28:08.081Z,87.46
2023-02-13T03:30:57.833Z,86.74
2023-02-13T03:33:45.781Z,86.48
2023-02-13T03:36:46.642Z,86.26
2023-02-13T03:39:24.882Z,86.78
2023-02-13T03:42:02.664Z,86.80
2023-02-13T03:44:36.868Z,87.36
2023-02-13T03:47:10.308Z,85.98
2023-02-13T03:50:04.033Z,86.04
2023-02-13T03:52:37.777Z,86.48
2023-02-13T03:55:30.412Z,86.20
2023-02-13T03:58:21.744Z,86.00
2023-02-13T04:00:55.194Z,86.37
2023-02-13T04:03:29.914Z,86.80
2023-02-13T04:06:05.503Z,86.75
2023-02-13T04:08:33.871Z,85.61
2023-02-13T04:11:15.015Z,85.84
2023-02-13T04:13:53.111Z,85.93
2023-02-13T04:16:29.978Z,85.66
2023-02-13T04:19:00.731Z,85.43
2023-02-13T04:21:29.201Z,85.72
2023-02-13T04:23:57.332Z,85.57
2023-02-13T04:26:33.907Z,85.48
2023-02-13T04:29:02.159Z,85.24
2023-02-13T04:31:30.350Z,84.43
2023-02-13T04:33:58.591Z,84.98
2023-02-13T04:36:27.022Z,85.49
2023-02-13T04:38:55.358Z,85.47
2023-02-13T04:41:23.473Z,85.86
2023-02-13T04:43:52.982Z,85.60
2023-02-13T04:46:21.162Z,85.01
2023-02-13T04:48:49.311Z,85.31
2023-02-13T04:51:17.538Z,85.83
2023-02-13T04:53:45.681Z,85.91
2023-02-13T04:56:14.305Z,86.27
2023-02-13T04:58:42.885Z,85.56
2023-02-13T05:01:17.697Z,85.97
2023-02-13T05:03:45.937Z,86.25
2023-02-13T05:06:14.282Z,86.63
2023-02-13T05:08:42.709Z,86.53
2023-02-13T05:11:10.837Z,86.89
2023-02-13T05:13:38.967Z,87.17
2023-02-13T05:16:07.812Z,87.44
2023-02-13T05:18:37.527Z,87.19
2023-02-13T05:21:23.531Z,86.99
2023-02-13T05:23:51.622Z,87.15
2023-02-13T05:26:19.709Z,87.16
2023-02-13T05:29:05.243Z,87.42
2023-02-13T05:31:33.485Z,87.13
2023-02-13T05:34:03.005Z,87.10
2023-02-13T05:36:31.137Z,87.46
2023-02-13T05:38:59.277Z,87.72
2023-02-13T05:41:27.635Z,87.96
2023-02-13T05:43:55.851Z,87.91
2023-02-13T05:46:24.041Z,88.08
2023-02-13T05:48:52.954Z,87.89
2023-02-13T05:51:22.484Z,87.65
2023-02-13T05:53:50.617Z,86.78
2023-02-13T05:56:18.764Z,87.00
2023-02-13T05:58:46.844Z,87.05
2023-02-13T06:01:15.112Z,86.91
2023-02-13T06:03:43.213Z,87.30
2023-02-13T06:06:11.554Z,87.58
2023-02-13T06:08:41.075Z,87.57
2023-02-13T06:11:09.839Z,87.49
2023-02-13T06:13:40.601Z,87.76
2023-02-13T06:16:09.344Z,88.06
2023-02-13T06:18:38.888Z,88.39
2023-02-13T06:21:08.514Z,88.72
2023-02-13T06:23:36.992Z,88.50
2023-02-13T06:26:09.249Z,88.43
2023-02-13T06:28:37.736Z,88.52
2023-02-13T06:31:06.426Z,88.53
2023-02-13T06:33:34.677Z,88.54
2023-02-13T06:36:02.792Z,88.88
2023-02-13T06:38:32.027Z,88.96
2023-02-13T06:41:02.862Z,88.86
2023-02-13T06:43:32.677Z,88.67
2023-02-13T06:46:00.870Z,88.53
2023-02-13T06:48:28.946Z,88.51
2023-02-13T06:50:57.258Z,88.76
2023-02-13T06:53:25.653Z,89.04
2023-02-13T06:55:54.472Z,89.10
2023-02-13T06:58:23.972Z,89.08
2023-02-13T07:00:54.746Z,88.79
2023-02-13T07:03:22.985Z,88.36
2023-02-13T07:05:52.046Z,88.29
2023-02-13T07:08:20.365Z,87.86
2023-02-13T07:10:48.517Z,87.63
2023-02-13T07:13:16.724Z,87.53
2023-02-13T07:15:44.934Z,87.51
2023-02-13T07:18:14.538Z,87.14
2023-02-13T07:20:42.676Z,86.67
2023-02-13T07:23:12.010Z,86.22
2023-02-13T07:25:40.150Z,86.12
2023-02-13T07:28:08.725Z,85.68
2023-02-13T07:30:37.113Z,85.32
2023-02-13T07:33:06.572Z,85.17
2023-02-13T07:35:37.671Z,83.29
2023-02-13T07:38:06.258Z,82.31
2023-02-13T07:40:34.446Z,82.29
2023-02-13T07:43:03.255Z,81.80
2023-02-13T07:45:31.813Z,81.34
2023-02-13T07:48:00.760Z,81.11
2023-02-13T07:50:30.129Z,80.67
2023-02-13T07:53:02.028Z,80.62
2023-02-13T07:55:32.689Z,80.78
2023-02-13T07:58:02.119Z,80.21
2023-02-13T08:00:30.563Z,79.90
2023-02-13T08:03:01.101Z,79.20
2023-02-13T08:05:30.051Z,77.83
2023-02-13T08:07:59.531Z,76.88
2023-02-13T08:10:45.288Z,76.89
2023-02-13T08:13:15.882Z,77.42
2023-02-13T08:15:44.953Z,76.13
2023-02-13T08:18:13.157Z,75.69
2023-02-13T08:20:41.295Z,76.23
2023-02-13T08:23:12.691Z,76.48
2023-02-13T08:25:41.580Z,75.53
2023-02-13T08:28:09.889Z,75.26
2023-02-13T08:30:38.303Z,75.26
2023-02-13T08:33:06.499Z,74.36
2023-02-13T08:35:34.649Z,73.70
2023-02-13T08:38:06.714Z,74.68
2023-02-13T08:40:36.820Z,73.55
2023-02-13T08:43:08.457Z,73.85
2023-02-13T08:45:37.731Z,74.04
2023-02-13T08:48:07.449Z,73.85
2023-02-13T08:50:37.102Z,74.01
2023-02-13T08:53:06.373Z,74.69
2023-02-13T08:55:35.892Z,74.57
2023-02-13T08:58:05.525Z,73.16
2023-02-13T09:00:33.792Z,73.95
2023-02-13T09:03:03.410Z,73.86
2023-02-13T09:05:32.547Z,72.29
2023-02-13T09:08:03.694Z,73.15
2023-02-13T09:10:32.667Z,73.24
2023-02-13T09:13:02.369Z,73.92
2023-02-13T09:15:30.980Z,74.73
2023-02-13T09:17:59.406Z,74.49
2023-02-13T09:20:28.004Z,74.82
2023-02-13T09:22:57.411Z,74.54
2023-02-13T09:25:25.629Z,74.90
2023-02-13T09:27:53.754Z,74.87
2023-02-13T09:30:26.630Z,74.38
2023-02-13T09:32:56.005Z,73.94
2023-02-13T09:35:24.969Z,73.43
2023-02-13T09:37:53.073Z,73.08
2023-02-13T09:40:29.423Z,72.89
2023-02-13T09:43:08.656Z,71.54
2023-02-13T09:45:40.109Z,71.56
2023-02-13T09:48:17.170Z,71.09
2023-02-13T09:50:45.375Z,71.97
2023-02-13T09:53:23.419Z,72.58
2023-02-13T09:56:06.648Z,73.36
2023-02-13T09:58:45.784Z,72.57
2023-02-13T10:01:31.058Z,72.46
2023-02-13T10:04:23.594Z,70.96
2023-02-13T10:07:09.000Z,71.24
2023-02-13T10:09:48.515Z,71.51
2023-02-13T10:12:37.205Z,71.71
2023-02-13T10:15:27.024Z,72.27
2023-02-13T10:18:05.091Z,72.52
2023-02-13T10:20:41.060Z,72.34
2023-02-13T10:23:22.120Z,72.90
2023-02-13T10:25:58.236Z,72.43
2023-02-13T10:28:39.535Z,71.86
2023-02-13T10:31:13.135Z,72.32
2023-02-13T10:33:51.266Z,71.08
2023-02-13T10:36:24.403Z,70.57
2023-02-13T10:39:01.766Z,70.13
2023-02-13T10:41:50.798Z,70.71
2023-02-13T10:44:44.661Z,70.08
2023-02-13T10:47:34.877Z,69.08
2023-02-13T10:50:23.682Z,68.46
2023-02-13T10:53:05.484Z,68.44
2023-02-13T10:56:07.989Z,69.16
2023-02-13T10:58:56.480Z,68.76
2023-02-13T11:01:32.467Z,68.52
2023-02-13T11:04:09.245Z,68.73
2023-02-13T11:06:44.329Z,68.38
2023-02-13T11:09:13.560Z,68.11
2023-02-13T11:11:43.881Z,68.41
2023-02-13T11:14:16.398Z,68.17
2023-02-13T11:16:58.543Z,68.36
2023-02-13T11:19:33.744Z,67.61
2023-02-13T11:22:08.960Z,68.10
2023-02-13T11:24:38.275Z,66.82
2023-02-13T11:27:12.801Z,67.62
2023-02-13T11:29:55.970Z,67.21
2023-02-13T11:32:26.115Z,65.13
2023-02-13T11:34:56.079Z,65.37
2023-02-13T11:37:29.154Z,64.68
2023-02-13T11:39:59.965Z,64.85
2023-02-13T11:42:32.554Z,64.30
2023-02-13T11:45:06.186Z,64.32
2023-02-13T11:47:40.979Z,65.44
2023-02-13T11:50:25.806Z,64.90
2023-02-13T11:53:06.105Z,65.28
2023-02-13T11:55:38.132Z,65.08
2023-02-13T11:58:25.917Z,65.27
2023-02-13T12:01:25.840Z,65.64
2023-02-13T12:04:07.292Z,65.71
2023-02-13T12:06:40.734Z,65.72
2023-02-13T12:09:16.686Z,66.05
2023-02-13T12:11:50.488Z,66.51
2023-02-13T12:14:23.854Z,65.97
2023-02-13T12:16:58.692Z,66.12
2023-02-13T12:19:36.051Z,66.86
2023-02-13T12:22:34.651Z,67.11
2023-02-13T12:25:55.260Z,66.98
2023-02-13T12:28:33.650Z,67.42
2023-02-13T12:31:43.711Z,67.20
2023-02-13T12:34:47.528Z,67.30
2023-02-13T12:37:39.179Z,67.24
2023-02-13T12:40:54.110Z,66.67
2023-02-13T12:44:16.591Z,66.66
2023-02-13T12:46:59.382Z,67.10
2023-02-13T12:49:54.281Z,66.29
2023-02-13T12:53:18.445Z,66.42
2023-02-13T12:56:09.734Z,65.26
2023-02-13T12:59:08.162Z,66.09
2023-02-13T13:02:37.034Z,66.58
2023-02-13T13:05:20.401Z,66.40
2023-02-13T13:08:13.813Z,67.21
2023-02-13T13:11:12.258Z,67.89
2023-02-13T13:13:56.124Z,68.21
2023-02-13T13:16:36.912Z,67.65
2023-02-13T13:19:18.365Z,68.64
2023-02-13T13:21:55.410Z,67.35
2023-02-13T13:24:45.588Z,68.73
2023-02-13T13:27:24.692Z,68.02
2023-02-13T13:30:00.110Z,68.29
2023-02-13T13:32:32.071Z,69.15
2023-02-13T13:35:00.947Z,68.98
2023-02-13T13:37:37.480Z,68.41
2023-02-13T13:40:30.497Z,68.33
2023-02-13T13:43:08.094Z,68.04
2023-02-13T13:45:50.545Z,67.69
2023-02-13T13:48:48.625Z,67.55
2023-02-13T13:51:19.943Z,68.19
2023-02-13T13:54:36.816Z,68.11
2023-02-13T13:57:24.411Z,68.13
2023-02-13T14:00:27.503Z,67.76
2023-02-13T14:03:23.401Z,67.46
2023-02-13T14:06:10.951Z,68.03
2023-02-13T14:09:07.247Z,67.31
2023-02-13T14:11:42.078Z,67.79
2023-02-13T14:14:53.712Z,67.77
2023-02-13T14:17:55.549Z,68.31
2023-02-13T14:20:37.444Z,68.38
2023-02-13T14:23:18.843Z,68.43
2023-02-13T14:25:50.045Z,69.20
2023-02-13T14:28:27.973Z,70.07
2023-02-13T14:31:14.795Z,69.63
2023-02-13T14:33:44.691Z,69.94
2023-02-13T14:36:27.136Z,70.33
2023-02-13T14:39:02.230Z,70.78
2023-02-13T14:41:47.413Z,70.70
2023-02-13T14:44:23.237Z,70.18
2023-02-13T14:46:54.577Z,70.94
2023-02-13T14:49:29.706Z,70.91
2023-02-13T14:52:02.620Z,70.62
2023-02-13T14:54:35.973Z,70.46
2023-02-13T14:57:13.086Z,71.19
2023-02-13T14:59:47.192Z,70.76
2023-02-13T15:02:23.335Z,70.77
2023-02-13T15:05:00.259Z,71.46
2023-02-13T15:07:34.329Z,71.70
2023-02-13T15:10:07.403Z,71.11
2023-02-13T15:12:38.602Z,70.65
2023-02-13T15:15:27.572Z,71.02
2023-02-13T15:18:02.523Z,71.22
2023-02-13T15:20:35.933Z,71.27
2023-02-13T15:23:06.602Z,71.95
2023-02-13T15:25:39.114Z,72.15
2023-02-13T15:28:18.070Z,72.22
2023-02-13T15:30:56.215Z,71.57
2023-02-13T15:33:27.800Z,70.92
2023-02-13T15:36:00.584Z,72.18
2023-02-13T15:38:31.618Z,72.36
2023-02-13T15:41:05.401Z,72.78
2023-02-13T15:43:38.324Z,73.03
2023-02-13T15:46:19.495Z,73.53
2023-02-13T15:48:48.620Z,73.63
2023-02-13T15:51:24.703Z,73.01
2023-02-13T15:53:53.409Z,73.10
2023-02-13T15:56:21.659Z,73.34
2023-02-13T15:58:51.253Z,73.73
2023-02-13T16:01:19.595Z,74.04
2023-02-13T16:03:51.983Z,74.72
2023-02-13T16:06:25.359Z,74.44
2023-02-13T16:08:55.369Z,74.38
2023-02-13T16:11:36.859Z,74.57
2023-02-13T16:14:14.132Z,74.56
2023-02-13T16:16:52.004Z,74.74
2023-02-13T16:19:34.058Z,74.34
2023-02-13T16:22:16.763Z,74.98
2023-02-13T16:24:51.922Z,74.85
2023-02-13T16:27:25.291Z,75.07
2023-02-13T16:29:59.816Z,75.21
2023-02-13T16:32:32.231Z,75.91
2023-02-13T16:35:27.122Z,75.94
2023-02-13T16:38:00.819Z,76.57
2023-02-13T16:40:43.776Z,76.35
2023-02-13T16:43:43.372Z,76.10
2023-02-13T16:46:24.210Z,76.37
2023-02-13T16:49:16.861Z,76.12
2023-02-13T16:51:50.073Z,76.22
2023-02-13T16:54:26.719Z,76.62
2023-02-13T16:56:59.779Z,76.75
2023-02-13T16:59:52.722Z,76.49
2023-02-13T17:02:24.466Z,76.74
2023-02-13T17:04:56.778Z,76.44
2023-02-13T17:07:28.869Z,76.61
2023-02-13T17:10:01.583Z,76.73
2023-02-13T17:12:32.600Z,76.28
2023-02-13T17:15:00.947Z,76.49
2023-02-13T17:17:31.871Z,76.37
2023-02-13T17:20:00.410Z,76.39
2023-02-13T17:22:38.370Z,76.69
2023-02-13T17:25:16.400Z,76.62
2023-02-13T17:27:44.533Z,76.59
2023-02-13T17:30:16.783Z,76.63
2023-02-13T17:32:47.368Z,76.72
2023-02-13T17:35:17.537Z,76.48
2023-02-13T17:37:46.338Z,76.66
2023-02-13T17:40:22.083Z,76.54
2023-02-13T17:42:54.181Z,75.96
2023-02-13T17:45:25.999Z,76.21
2023-02-13T17:47:54.656Z,76.44
2023-02-13T17:50:23.209Z,76.79
2023-02-13T17:52:52.004Z,77.02
2023-02-13T17:55:25.282Z,77.38
2023-02-13T17:57:57.425Z,77.73
2023-02-13T18:00:27.950Z,78.06
2023-02-13T18:02:57.753Z,78.12
2023-02-13T18:05:25.957Z,77.41
2023-02-13T18:07:54.181Z,77.58
2023-02-13T18:10:27.685Z,78.06
2023-02-13T18:12:58.317Z,77.99
2023-02-13T18:15:26.502Z,78.21
2023-02-13T18:17:54.674Z,77.88
2023-02-13T18:20:23.027Z,77.78
2023-02-13T18:22:51.422Z,78.15
2023-02-13T18:25:21.440Z,78.30
2023-02-13T18:27:50.928Z,78.38
2023-02-13T18:30:21.341Z,78.75
2023-02-13T18:32:53.879Z,78.17
2023-02-13T18:35:22.899Z,78.01
2023-02-13T18:37:51.446Z,78.00
2023-02-13T18:40:19.677Z,77.95
2023-02-13T18:42:49.672Z,78.08
2023-02-13T18:45:19.972Z,78.54
2023-02-13T18:47:48.094Z,79.24
2023-02-13T18:50:16.170Z,79.71
2023-02-13T18:52:44.355Z,79.78
2023-02-13T18:55:12.476Z,80.18
2023-02-13T18:57:43.378Z,80.50
2023-02-13T19:00:14.227Z,81.02
2023-02-13T19:02:43.694Z,81.48
2023-02-13T19:05:11.827Z,81.87
2023-02-13T19:07:39.913Z,82.62
2023-02-13T19:10:09.204Z,83.17
2023-02-13T19:12:37.379Z,83.62
2023-02-13T19:15:06.280Z,84.03
2023-02-13T19:17:35.886Z,84.35
2023-02-13T19:20:07.025Z,84.42
2023-02-13T19:22:35.081Z,84.98
2023-02-13T19:25:03.177Z,84.89
2023-02-13T19:27:31.250Z,85.17
2023-02-13T19:29:59.514Z,85.08
2023-02-13T19:32:27.625Z,84.92
2023-02-13T19:34:55.777Z,85.21
2023-02-13T19:37:28.290Z,85.51
2023-02-13T19:39:56.569Z,85.38
2023-02-13T19:42:24.710Z,85.65
2023-02-13T19:44:52.958Z,85.98
2023-02-13T19:47:21.114Z,86.15
2023-02-13T19:49:49.971Z,86.57
2023-02-13T19:52:19.070Z,86.69
2023-02-13T19:54:49.638Z,86.92
2023-02-13T19:57:18.318Z,87.30
2023-02-13T19:59:46.480Z,87.46
2023-02-13T20:02:17.185Z,87.80
2023-02-13T20:04:45.777Z,88.01
2023-02-13T20:07:14.407Z,87.98
2023-02-13T20:09:42.580Z,87.53
2023-02-13T20:12:12.154Z,87.30
2023-02-13T20:14:40.315Z,87.42
2023-02-13T20:17:08.450Z,87.80
2023-02-13T20:19:37.213Z,88.42
2023-02-13T20:22:05.359Z,88.43
2023-02-13T20:24:33.695Z,88.68
2023-02-13T20:27:01.855Z,88.76
2023-02-13T20:29:31.293Z,88.73
2023-02-13T20:31:59.651Z,89.21
2023-02-13T20:34:29.644Z,89.41
2023-02-13T20:36:59.707Z,89.46
2023-02-13T20:39:27.907Z,89.50
2023-02-13T20:41:56.031Z,89.63
2023-02-13T20:44:24.166Z,89.98
2023-02-13T20:46:54.882Z,90.18
2023-02-13T20:49:23.005Z,90.41
2023-02-13T20:51:51.244Z,90.54
2023-02-13T20:54:20.162Z,90.66
2023-02-13T20:56:48.305Z,90.76
2023-02-13T20:59:16.433Z,91.08
2023-02-13T21:01:45.591Z,91.26
2023-02-13T21:04:19.052Z,91.49
2023-02-13T21:06:48.735Z,91.03
2023-02-13T21:09:17.381Z,91.29
2023-02-13T21:11:46.284Z,90.49
2023-02-13T21:14:15.435Z,90.00
2023-02-13T21:16:44.849Z,90.32
2023-02-13T21:19:20.139Z,90.65
2023-02-13T21:21:48.988Z,90.74
2023-02-13T21:24:21.082Z,91.00
2023-02-13T21:26:51.898Z,90.94
2023-02-13T21:29:20.413Z,90.54
2023-02-13T21:31:48.949Z,89.94
2023-02-13T21:34:19.659Z,89.52
2023-02-13T21:36:48.182Z,89.55
2023-02-13T21:39:16.840Z,89.65
2023-02-13T21:41:46.753Z,89.79
2023-02-13T21:44:17.668Z,88.93
2023-02-13T21:46:47.320Z,88.58
2023-02-13T21:49:19.242Z,88.06
2023-02-13T21:51:48.567Z,88.04
2023-02-13T21:54:16.757Z,87.87
2023-02-13T21:56:45.738Z,87.80
2023-02-13T21:59:16.920Z,87.15
2023-02-13T22:01:46.922Z,86.97
2023-02-13T22:04:15.558Z,86.71
2023-02-13T22:06:49.311Z,86.18
2023-02-13T22:09:20.857Z,85.28
2023-02-13T22:11:51.718Z,84.77
2023-02-13T22:14:20.394Z,84.52
2023-02-13T22:16:51.883Z,84.62
2023-02-13T22:19:20.864Z,84.88
2023-02-13T22:21:50.581Z,84.25
2023-02-13T22:24:18.772Z,84.53
2023-02-13T22:26:47.091Z,84.26
2023-02-13T22:29:18.469Z,84.30
2023-02-13T22:31:47.815Z,84.22
2023-02-13T22:34:16.642Z,84.28
2023-02-13T22:36:44.850Z,84.23
2023-02-13T22:39:14.334Z,83.99
2023-02-13T22:41:45.479Z,84.19
2023-02-13T22:44:13.723Z,83.11
2023-02-13T22:46:41.863Z,82.80
2023-02-13T22:49:10.039Z,83.01
2023-02-13T22:51:38.414Z,83.31
2023-02-13T22:54:07.587Z,83.98
2023-02-13T22:56:37.084Z,84.14
2023-02-13T22:59:05.227Z,83.54
2023-02-13T23:01:33.385Z,83.16
2023-02-13T23:04:01.742Z,82.60
2023-02-13T23:06:30.174Z,82.43
2023-02-13T23:08:58.797Z,83.00
2023-02-13T23:11:46.868Z,82.28
2023-02-13T23:14:17.024Z,82.52
2023-02-13T23:17:03.224Z,82.53
2023-02-13T23:19:32.120Z,81.78
2023-02-13T23:22:00.930Z,82.05
2023-02-13T23:24:30.197Z,82.44
2023-02-13T23:26:58.520Z,82.53
2023-02-13T23:29:28.530Z,81.23
2023-02-13T23:31:57.058Z,81.57
2023-02-13T23:34:25.314Z,81.74
2023-02-13T23:36:53.479Z,82.01
2023-02-13T23:39:21.778Z,81.29
2023-02-13T23:41:49.883Z,81.93
2023-02-13T23:44:18.110Z,81.63
2023-02-13T23:46:47.604Z,80.38
2023-02-13T23:49:15.960Z,81.26
2023-02-13T23:51:44.151Z,81.39
2023-02-13T23:54:16.906Z,81.57
2023-02-13T23:56:45.451Z,81.58
2023-02-13T23:59:14.059Z,81.29
